Time;durP1;ratioP1;P1;durP2;ratioP2;P2;SDS_P1;SDS_P2;PMS_P1;PMS_P2;Temp;Humidity;BMP_temperature;BMP_pressure;BME280_temperature;BME280_humidity;BME280_pressure;Samples;Min_cycle;Max_cycle;Signal;HPM_P1;HPM_P2
2022/01/11 00:01:42;;;;;;;21.48;11.98;;;5.10;99.90;;;;;;5111541;28;20031;-66
2022/01/11 00:04:09;;;;;;;21.45;13.63;;;5.20;99.90;;;;;;5111717;28;20031;-67
2022/01/11 00:06:43;;;;;;;20.27;11.75;;;5.10;99.90;;;;;;5094707;28;20065;-66
2022/01/11 00:09:20;;;;;;;21.85;11.90;;;5.20;99.90;;;;;;5111301;28;20031;-71
2022/01/11 00:11:47;;;;;;;17.90;10.70;;;5.10;99.90;;;;;;5111463;28;20384;-67
2022/01/11 00:14:13;;;;;;;21.73;12.48;;;5.00;99.90;;;;;;5111594;28;20027;-66
2022/01/11 00:16:39;;;;;;;21.05;12.23;;;5.10;99.90;;;;;;5111661;28;20048;-67
2022/01/11 00:19:06;;;;;;;19.35;11.85;;;5.20;99.90;;;;;;5113665;28;20059;-67
2022/01/11 00:21:44;;;;;;;19.08;11.75;;;5.10;99.90;;;;;;5113294;28;20055;-67
2022/01/11 00:26:54;;;;;;;19.27;11.68;;;5.00;99.90;;;;;;5115143;28;20049;-67
2022/01/11 00:29:19;;;;;;;21.05;12.07;;;5.00;99.90;;;;;;5117780;28;20040;-66
2022/01/11 00:31:47;;;;;;;21.30;12.30;;;5.10;99.90;;;;;;5117081;28;20069;-75
2022/01/11 00:34:15;;;;;;;20.13;12.68;;;4.90;99.90;;;;;;5119414;28;20472;-67
2022/01/11 00:36:42;;;;;;;18.08;11.75;;;5.00;99.90;;;;;;5120530;28;20393;-70
2022/01/11 00:39:11;;;;;;;22.50;13.60;;;5.00;99.90;;;;;;5118928;28;20458;-67
2022/01/11 00:41:43;;;;;;;21.83;12.82;;;4.90;99.90;;;;;;5116201;28;20020;-68
2022/01/11 00:44:09;;;;;;;24.17;13.48;;;4.90;99.90;;;;;;5115097;28;20054;-65
2022/01/11 00:46:35;;;;;;;21.90;12.45;;;4.90;99.90;;;;;;5116073;28;20089;-66
2022/01/11 00:49:01;;;;;;;19.15;12.52;;;4.90;99.90;;;;;;5115492;28;20031;-66
2022/01/11 00:51:27;;;;;;;20.52;12.13;;;4.80;99.90;;;;;;5118002;28;20057;-68
2022/01/11 00:53:53;;;;;;;19.90;12.45;;;4.90;99.90;;;;;;5116765;28;20024;-68
2022/01/11 00:56:19;;;;;;;20.33;12.60;;;4.80;99.90;;;;;;5117195;28;20030;-68
2022/01/11 00:58:47;;;;;;;19.25;12.63;;;4.90;99.90;;;;;;5116823;28;20031;-67
2022/01/11 01:01:12;;;;;;;24.52;12.55;;;4.90;99.90;;;;;;5115962;28;20457;-67
2022/01/11 01:03:38;;;;;;;19.10;12.35;;;5.00;99.90;;;;;;5116211;28;20057;-67
2022/01/11 01:06:04;;;;;;;25.05;13.48;;;4.90;99.90;;;;;;5113925;28;20464;-66
2022/01/11 01:08:30;;;;;;;21.35;12.18;;;4.90;99.90;;;;;;5115495;28;20034;-65
2022/01/11 01:10:55;;;;;;;23.52;11.90;;;4.90;99.90;;;;;;5114847;28;20108;-67
2022/01/11 01:13:25;;;;;;;23.88;13.45;;;4.90;99.90;;;;;;5115803;28;20031;-66
2022/01/11 01:15:53;;;;;;;18.30;11.70;;;4.80;99.90;;;;;;5114895;28;20364;-66
2022/01/11 01:18:22;;;;;;;22.25;11.82;;;4.80;99.90;;;;;;5114445;28;20031;-67
2022/01/11 01:20:49;;;;;;;17.65;10.75;;;4.90;99.90;;;;;;5113941;28;20057;-66
2022/01/11 01:23:15;;;;;;;18.60;11.02;;;4.90;99.90;;;;;;5114180;28;20047;-67
2022/01/11 01:25:43;;;;;;;20.23;11.35;;;5.00;99.90;;;;;;5114483;28;20054;-68
2022/01/11 01:28:09;;;;;;;20.80;11.32;;;4.80;99.90;;;;;;5113880;28;20028;-67
2022/01/11 01:30:36;;;;;;;20.40;11.07;;;4.80;99.90;;;;;;5113824;28;20358;-66
2022/01/11 01:33:02;;;;;;;21.30;11.57;;;4.70;99.90;;;;;;5114632;27;20500;-70
2022/01/11 01:35:33;;;;;;;20.85;12.27;;;4.80;99.90;;;;;;5114355;28;20043;-65
2022/01/11 01:37:59;;;;;;;17.92;11.18;;;4.70;99.90;;;;;;5114616;28;20032;-66
2022/01/11 01:40:26;;;;;;;21.55;12.30;;;4.80;99.90;;;;;;5115236;28;20458;-66
2022/01/11 01:42:52;;;;;;;19.92;12.75;;;4.90;99.90;;;;;;5113087;28;20049;-66
2022/01/11 01:45:19;;;;;;;20.50;11.38;;;4.70;99.90;;;;;;5115125;28;20054;-66
2022/01/11 01:47:45;;;;;;;26.08;12.38;;;4.70;99.90;;;;;;5114745;28;20564;-66
2022/01/11 01:50:11;;;;;;;19.35;11.77;;;4.70;99.90;;;;;;5112927;28;20059;-67
2022/01/11 01:52:38;;;;;;;17.45;11.65;;;4.70;99.90;;;;;;5114789;28;20027;-66
2022/01/11 01:55:05;;;;;;;17.08;10.88;;;4.60;99.90;;;;;;5113110;28;20073;-66
2022/01/11 01:57:31;;;;;;;19.65;11.23;;;4.60;99.90;;;;;;5113155;28;20102;-66
2022/01/11 01:59:57;;;;;;;18.20;11.85;;;4.60;99.90;;;;;;5112806;28;20097;-66
2022/01/11 02:02:22;;;;;;;18.88;11.95;;;4.60;99.90;;;;;;5113479;28;20418;-66
2022/01/11 02:04:50;;;;;;;23.55;11.85;;;4.60;99.90;;;;;;5115564;28;20389;-66
2022/01/11 02:07:15;;;;;;;19.05;11.45;;;4.60;99.90;;;;;;5115468;28;20046;-66
2022/01/11 02:09:41;;;;;;;21.65;12.07;;;4.70;99.90;;;;;;5114045;28;20525;-68
2022/01/11 02:12:07;;;;;;;21.83;11.60;;;4.70;99.90;;;;;;5113834;28;20027;-67
2022/01/11 02:14:33;;;;;;;22.52;13.38;;;4.70;99.90;;;;;;5113563;28;20060;-65
2022/01/11 02:17:00;;;;;;;21.58;12.57;;;4.70;99.90;;;;;;5112686;28;20055;-66
2022/01/11 02:19:27;;;;;;;20.90;12.55;;;4.60;99.90;;;;;;5113009;28;20468;-66
2022/01/11 02:21:52;;;;;;;21.92;12.63;;;4.60;99.90;;;;;;5111934;28;20075;-67
2022/01/11 02:24:19;;;;;;;22.33;13.00;;;4.60;99.90;;;;;;5112924;28;20078;-66
2022/01/11 02:26:45;;;;;;;20.58;11.00;;;4.50;99.90;;;;;;5114368;28;20028;-66
2022/01/11 02:29:10;;;;;;;25.33;13.05;;;4.50;99.90;;;;;;5112365;28;20194;-66
2022/01/11 02:31:38;;;;;;;17.20;11.18;;;4.60;99.90;;;;;;5114073;28;20137;-65
2022/01/11 02:34:04;;;;;;;20.40;13.00;;;4.50;99.90;;;;;;5113930;28;20023;-67
2022/01/11 02:36:32;;;;;;;20.35;13.07;;;4.50;99.90;;;;;;5114503;28;20204;-65
2022/01/11 02:38:59;;;;;;;22.23;13.07;;;4.50;99.90;;;;;;5112411;28;20507;-65
2022/01/11 02:41:29;;;;;;;23.98;13.52;;;4.50;99.90;;;;;;5113897;28;20030;-65
2022/01/11 02:43:57;;;;;;;21.63;12.80;;;4.40;99.90;;;;;;5113464;28;20038;-67
2022/01/11 02:46:23;;;;;;;23.02;13.25;;;4.30;99.90;;;;;;5113818;28;20495;-66
2022/01/11 02:48:51;;;;;;;23.27;12.45;;;4.30;99.90;;;;;;5126390;27;20379;-68
2022/01/11 02:51:17;;;;;;;25.83;12.85;;;4.30;99.90;;;;;;5135251;27;20027;-66
2022/01/11 02:53:46;;;;;;;25.55;14.90;;;4.30;99.90;;;;;;5136772;27;20119;-67
2022/01/11 02:56:12;;;;;;;35.25;12.63;;;4.30;99.90;;;;;;5135862;27;20380;-68
2022/01/11 02:58:38;;;;;;;24.75;11.90;;;4.30;99.90;;;;;;5134433;27;20046;-65
2022/01/11 03:01:05;;;;;;;20.70;12.95;;;4.30;99.90;;;;;;5132533;27;20027;-70
2022/01/11 03:03:31;;;;;;;21.90;12.52;;;4.30;99.90;;;;;;5134892;27;20026;-66
2022/01/11 03:06:03;;;;;;;20.20;12.27;;;4.30;99.90;;;;;;5134320;27;20023;-67
2022/01/11 03:08:35;;;;;;;19.83;12.07;;;4.20;99.90;;;;;;5134707;27;20055;-67
2022/01/11 03:11:01;;;;;;;17.65;10.70;;;4.30;99.90;;;;;;5132859;27;20490;-65
2022/01/11 03:13:27;;;;;;;19.88;10.80;;;4.30;99.90;;;;;;5134315;27;20031;-68
2022/01/11 03:15:53;;;;;;;20.08;11.77;;;4.20;99.90;;;;;;5134966;27;20417;-70
2022/01/11 03:18:20;;;;;;;20.17;12.30;;;4.30;99.90;;;;;;5133293;27;20535;-68
2022/01/11 03:20:49;;;;;;;21.33;11.68;;;4.20;99.90;;;;;;5133091;27;20461;-66
2022/01/11 03:23:16;;;;;;;17.88;10.63;;;4.30;99.90;;;;;;5133092;27;20043;-67
2022/01/11 03:25:42;;;;;;;18.80;10.43;;;4.30;99.90;;;;;;5133530;27;20032;-67
2022/01/11 03:28:08;;;;;;;16.83;11.10;;;4.40;99.90;;;;;;5133251;27;20062;-67
2022/01/11 03:30:34;;;;;;;17.40;10.23;;;4.40;99.90;;;;;;5134064;27;20038;-66
2022/01/11 03:33:00;;;;;;;15.60;9.98;;;4.40;99.90;;;;;;5133051;27;20027;-65
2022/01/11 03:35:27;;;;;;;18.10;10.68;;;4.40;99.90;;;;;;5133463;27;20072;-66
2022/01/11 03:37:53;;;;;;;18.27;10.43;;;4.30;99.90;;;;;;5133332;27;20031;-66
2022/01/11 03:40:23;;;;;;;18.50;8.20;;;4.30;99.90;;;;;;5131277;27;20023;-66
2022/01/11 03:42:49;;;;;;;19.08;10.25;;;4.40;99.90;;;;;;5133156;27;20487;-66
2022/01/11 03:45:15;;;;;;;20.42;10.07;;;4.40;99.90;;;;;;5132675;27;20216;-67
2022/01/11 03:47:42;;;;;;;16.00;9.23;;;4.30;99.90;;;;;;5132953;27;20031;-66
2022/01/11 03:50:09;;;;;;;18.48;9.40;;;4.20;99.90;;;;;;5132461;27;20023;-65
2022/01/11 03:52:35;;;;;;;17.60;9.70;;;4.30;99.90;;;;;;5133252;27;20030;-65
2022/01/11 03:55:06;;;;;;;20.75;10.63;;;4.20;99.90;;;;;;5132487;27;20027;-66
2022/01/11 03:57:32;;;;;;;17.25;10.02;;;4.20;99.90;;;;;;5132377;27;20024;-65
2022/01/11 04:00:00;;;;;;;16.42;8.43;;;4.20;99.90;;;;;;5137035;27;20023;-67
2022/01/11 04:02:26;;;;;;;19.80;11.30;;;4.30;99.90;;;;;;5139211;27;20117;-67
2022/01/11 04:04:52;;;;;;;17.83;10.30;;;4.30;99.90;;;;;;5139697;27;20060;-65
2022/01/11 04:07:26;;;;;;;14.95;9.85;;;4.30;99.90;;;;;;5136360;27;20031;-66
2022/01/11 04:09:53;;;;;;;15.57;8.15;;;4.20;99.90;;;;;;5136494;27;20092;-67
2022/01/11 04:12:20;;;;;;;14.45;9.27;;;4.20;99.90;;;;;;5137333;27;20051;-65
2022/01/11 04:14:46;;;;;;;13.52;8.48;;;4.20;99.90;;;;;;5140316;27;20076;-69
2022/01/11 04:17:12;;;;;;;15.82;9.98;;;4.20;99.90;;;;;;5140125;27;20422;-70
2022/01/11 04:19:37;;;;;;;19.00;10.30;;;4.20;99.90;;;;;;5141816;27;20584;-67
2022/01/11 04:22:03;;;;;;;18.35;9.85;;;4.30;99.90;;;;;;5138158;27;20075;-66
2022/01/11 04:24:32;;;;;;;13.68;8.30;;;4.30;99.90;;;;;;5140144;27;20023;-66
2022/01/11 04:26:58;;;;;;;15.70;9.25;;;4.30;99.90;;;;;;5136815;27;20030;-68
2022/01/11 04:29:23;;;;;;;19.45;10.10;;;4.30;99.90;;;;;;5136337;27;20027;-69
2022/01/11 04:31:49;;;;;;;18.30;9.57;;;4.30;99.90;;;;;;5138338;27;20038;-71
2022/01/11 04:34:15;;;;;;;13.73;8.27;;;4.30;99.90;;;;;;5137024;27;20035;-68
2022/01/11 04:36:41;;;;;;;23.00;9.57;;;4.20;99.90;;;;;;5137008;27;20025;-67
2022/01/11 04:39:10;;;;;;;18.88;10.20;;;4.20;99.90;;;;;;5136156;27;20459;-65
2022/01/11 04:41:36;;;;;;;18.25;10.32;;;4.20;99.90;;;;;;5136749;27;20057;-67
2022/01/11 04:44:02;;;;;;;17.73;9.27;;;4.20;99.90;;;;;;5136159;27;20023;-66
2022/01/11 04:46:27;;;;;;;21.65;10.18;;;4.20;99.90;;;;;;5136801;27;20023;-72
2022/01/11 04:48:54;;;;;;;17.48;9.32;;;4.30;99.90;;;;;;5136956;27;20034;-70
2022/01/11 04:51:21;;;;;;;20.85;9.70;;;4.40;99.90;;;;;;5135288;27;20035;-66
2022/01/11 04:53:48;;;;;;;17.58;10.00;;;4.30;99.90;;;;;;5136949;27;20027;-66
2022/01/11 04:56:14;;;;;;;16.40;9.45;;;4.40;99.90;;;;;;5137142;27;20039;-71
2022/01/11 04:58:39;;;;;;;18.20;9.48;;;4.30;99.90;;;;;;5137160;27;20376;-67
2022/01/11 05:01:05;;;;;;;21.25;9.93;;;4.30;99.90;;;;;;5135990;27;20027;-68
2022/01/11 05:03:31;;;;;;;24.00;10.55;;;4.40;99.90;;;;;;5136528;27;20443;-65
2022/01/11 05:05:56;;;;;;;21.20;9.73;;;4.30;99.90;;;;;;5136466;27;20031;-66
2022/01/11 05:08:22;;;;;;;20.95;9.50;;;4.30;99.90;;;;;;5135020;27;20129;-67
2022/01/11 05:10:48;;;;;;;19.52;10.40;;;4.30;99.90;;;;;;5134169;27;20027;-66
2022/01/11 05:13:15;;;;;;;18.48;9.88;;;4.40;99.90;;;;;;5136071;27;20024;-66
2022/01/11 05:15:42;;;;;;;17.65;10.50;;;4.40;99.90;;;;;;5136217;27;20024;-66
2022/01/11 05:18:08;;;;;;;20.95;10.15;;;4.40;99.90;;;;;;5134494;27;20049;-67
2022/01/11 05:20:35;;;;;;;18.02;10.50;;;4.40;99.90;;;;;;5135013;27;20468;-66
2022/01/11 05:23:02;;;;;;;22.35;11.02;;;4.50;99.90;;;;;;5134208;27;20079;-69
2022/01/11 05:25:28;;;;;;;16.80;9.57;;;4.50;99.90;;;;;;5135889;27;20051;-67
2022/01/11 05:27:54;;;;;;;16.77;10.23;;;4.40;99.90;;;;;;5135740;27;20105;-69
2022/01/11 05:30:23;;;;;;;20.00;9.93;;;4.30;99.90;;;;;;5135462;27;20051;-67
2022/01/11 05:32:49;;;;;;;23.95;11.75;;;4.30;99.90;;;;;;5136358;27;20472;-65
2022/01/11 05:35:17;;;;;;;17.02;10.18;;;4.50;99.90;;;;;;5136059;27;20034;-67
2022/01/11 05:37:43;;;;;;;21.17;11.43;;;4.50;99.90;;;;;;5135450;27;20499;-67
2022/01/11 05:40:10;;;;;;;20.73;11.65;;;4.40;99.90;;;;;;5133752;27;20498;-66
2022/01/11 05:42:37;;;;;;;18.80;10.57;;;4.50;99.90;;;;;;5135226;27;20408;-69
2022/01/11 05:45:04;;;;;;;18.60;10.45;;;4.50;99.90;;;;;;5116544;27;20031;-70
2022/01/11 05:47:29;;;;;;;20.60;10.85;;;4.60;99.90;;;;;;5134996;27;20487;-67
2022/01/11 05:49:55;;;;;;;35.28;11.52;;;4.60;99.90;;;;;;5135086;27;20035;-65
2022/01/11 05:52:21;;;;;;;20.35;10.85;;;4.60;99.90;;;;;;5133133;27;20023;-66
2022/01/11 05:54:47;;;;;;;18.80;11.18;;;4.60;99.90;;;;;;5135082;27;20019;-66
2022/01/11 05:57:13;;;;;;;20.30;10.00;;;4.60;99.90;;;;;;5134763;27;20062;-67
2022/01/11 05:59:39;;;;;;;16.98;9.75;;;4.60;99.90;;;;;;5135148;27;20031;-67
2022/01/11 06:02:05;;;;;;;18.30;10.50;;;4.50;99.90;;;;;;5133457;27;20073;-66
2022/01/11 06:04:30;;;;;;;21.52;9.20;;;4.60;99.90;;;;;;5135219;27;20027;-66
2022/01/11 06:06:56;;;;;;;17.83;10.32;;;4.50;99.90;;;;;;5134986;27;20019;-66
2022/01/11 06:09:26;;;;;;;18.05;10.00;;;4.60;99.90;;;;;;5134136;27;20117;-66
2022/01/11 06:11:53;;;;;;;34.40;10.80;;;4.70;99.90;;;;;;5135019;27;20091;-69
2022/01/11 06:14:19;;;;;;;20.25;10.25;;;4.80;99.90;;;;;;5133081;27;20027;-65
2022/01/11 06:16:45;;;;;;;15.15;10.25;;;4.80;99.90;;;;;;5133768;27;20041;-67
2022/01/11 06:19:10;;;;;;;16.00;10.65;;;4.90;99.90;;;;;;5135165;27;20464;-68
2022/01/11 06:21:36;;;;;;;23.08;12.10;;;4.90;99.90;;;;;;5133187;27;20057;-65
2022/01/11 06:24:02;;;;;;;17.08;9.52;;;4.80;99.90;;;;;;5135177;27;20064;-66
2022/01/11 06:26:28;;;;;;;16.15;9.90;;;4.80;99.90;;;;;;5133674;27;20039;-66
2022/01/11 06:28:56;;;;;;;18.38;9.75;;;4.80;99.90;;;;;;5133935;27;20030;-65
2022/01/11 06:31:22;;;;;;;18.63;9.55;;;4.90;99.90;;;;;;5134731;27;20035;-68
2022/01/11 06:33:49;;;;;;;16.38;10.15;;;5.00;99.90;;;;;;5135522;27;20106;-68
2022/01/11 06:36:14;;;;;;;24.70;10.80;;;5.00;99.90;;;;;;5134487;27;20073;-67
2022/01/11 06:38:43;;;;;;;18.80;11.27;;;4.90;99.90;;;;;;5133278;27;20460;-67
2022/01/11 06:41:09;;;;;;;25.13;11.80;;;4.90;99.90;;;;;;5133165;27;20090;-68
2022/01/11 06:43:36;;;;;;;36.10;12.73;;;4.90;99.90;;;;;;5135113;27;20034;-67
2022/01/11 06:46:03;;;;;;;32.05;11.00;;;5.00;99.90;;;;;;5136077;27;20114;-68
2022/01/11 06:48:29;;;;;;;20.45;10.60;;;4.90;99.90;;;;;;5133441;27;20515;-66
2022/01/11 06:50:55;;;;;;;18.00;9.90;;;4.90;99.90;;;;;;5134144;27;20052;-71
2022/01/11 06:53:20;;;;;;;16.05;9.70;;;4.90;99.90;;;;;;5134420;27;20031;-68
2022/01/11 06:55:46;;;;;;;19.42;10.40;;;4.80;99.90;;;;;;5134942;27;20106;-69
2022/01/11 06:58:13;;;;;;;24.95;10.68;;;4.70;99.90;;;;;;5133058;27;20034;-69
2022/01/11 07:00:39;;;;;;;16.08;9.63;;;4.70;99.90;;;;;;5133457;27;20027;-67
2022/01/11 07:03:05;;;;;;;17.88;9.38;;;4.60;99.90;;;;;;5135334;27;20403;-67
2022/01/11 07:05:31;;;;;;;17.23;11.07;;;4.70;99.90;;;;;;5134649;27;20106;-66
2022/01/11 07:07:56;;;;;;;18.73;10.27;;;4.70;99.90;;;;;;5133205;27;20062;-68
2022/01/11 07:10:22;;;;;;;15.52;9.30;;;4.70;99.90;;;;;;5132210;27;20027;-69
2022/01/11 07:12:48;;;;;;;19.30;9.85;;;4.60;99.90;;;;;;5133757;27;20072;-66
2022/01/11 07:15:14;;;;;;;25.73;12.77;;;4.60;99.90;;;;;;5132389;27;20026;-67
2022/01/11 07:17:42;;;;;;;21.02;12.23;;;4.60;99.90;;;;;;5135062;27;20492;-66
2022/01/11 07:20:08;;;;;;;20.20;10.65;;;4.60;99.90;;;;;;5132933;27;20023;-66
2022/01/11 07:22:34;;;;;;;24.33;10.50;;;4.80;99.90;;;;;;5132461;27;20488;-66
2022/01/11 07:24:59;;;;;;;18.75;11.18;;;4.80;99.90;;;;;;5134190;27;20019;-67
2022/01/11 07:27:25;;;;;;;19.50;10.35;;;4.90;99.90;;;;;;5133360;27;20458;-66
2022/01/11 07:29:51;;;;;;;16.48;10.00;;;5.00;99.90;;;;;;5134784;27;20035;-65
2022/01/11 07:32:17;;;;;;;21.45;11.52;;;5.00;99.90;;;;;;5133407;27;20027;-68
2022/01/11 07:34:43;;;;;;;20.17;10.27;;;4.90;99.90;;;;;;5134283;27;20027;-67
2022/01/11 07:37:09;;;;;;;15.23;10.13;;;4.60;99.90;;;;;;5135632;27;20037;-67
2022/01/11 07:39:34;;;;;;;16.48;9.35;;;4.40;99.90;;;;;;5136448;27;20037;-68
2022/01/11 07:42:00;;;;;;;17.80;10.07;;;4.50;99.90;;;;;;5134108;27;20023;-66
2022/01/11 07:44:26;;;;;;;16.63;9.95;;;4.50;99.90;;;;;;5133252;27;20024;-66
2022/01/11 07:46:53;;;;;;;21.25;10.38;;;4.60;99.90;;;;;;5132230;27;20044;-67
2022/01/11 07:49:19;;;;;;;17.13;10.15;;;4.50;99.90;;;;;;5131300;27;20059;-69
2022/01/11 07:51:45;;;;;;;21.30;10.75;;;4.50;99.90;;;;;;5133387;27;20512;-66
2022/01/11 07:54:11;;;;;;;17.42;9.93;;;4.30;99.90;;;;;;5131251;28;20099;-67
2022/01/11 07:56:37;;;;;;;15.32;10.40;;;4.50;99.90;;;;;;5133271;27;20084;-66
2022/01/11 07:59:04;;;;;;;16.08;9.45;;;4.50;99.90;;;;;;5132877;28;20468;-67
2022/01/11 08:01:29;;;;;;;19.63;10.93;;;4.60;99.90;;;;;;5131281;28;20063;-66
2022/01/11 08:03:55;;;;;;;18.35;10.55;;;4.50;99.90;;;;;;5131941;28;20087;-66
2022/01/11 08:06:21;;;;;;;22.67;11.48;;;4.50;99.90;;;;;;5132428;28;20099;-67
2022/01/11 08:08:47;;;;;;;18.10;10.30;;;4.50;99.90;;;;;;5133467;28;20029;-67
2022/01/11 08:11:13;;;;;;;26.75;11.68;;;4.50;99.90;;;;;;5133030;27;20108;-66
2022/01/11 08:13:39;;;;;;;19.17;11.00;;;4.60;99.90;;;;;;5133089;28;20107;-68
2022/01/11 08:16:05;;;;;;;14.90;9.48;;;4.70;99.90;;;;;;5133528;27;20502;-66
2022/01/11 08:18:31;;;;;;;18.38;9.95;;;4.70;99.90;;;;;;5131336;28;20031;-67
2022/01/11 08:20:57;;;;;;;26.17;11.60;;;4.70;99.90;;;;;;5132986;27;20043;-67
2022/01/11 08:23:22;;;;;;;17.00;9.77;;;4.80;99.90;;;;;;5131014;28;20071;-68
2022/01/11 08:25:48;;;;;;;15.57;10.23;;;4.90;99.90;;;;;;5133481;28;20102;-68
2022/01/11 08:28:14;;;;;;;16.98;9.23;;;4.90;99.90;;;;;;5132353;28;20069;-68
2022/01/11 08:30:40;;;;;;;15.43;9.70;;;5.00;99.90;;;;;;5133239;27;20469;-67
2022/01/11 08:33:06;;;;;;;16.90;10.52;;;4.90;99.90;;;;;;5133403;28;20035;-69
2022/01/11 08:35:32;;;;;;;19.63;10.02;;;4.90;99.90;;;;;;5133003;27;20023;-68
2022/01/11 08:37:59;;;;;;;17.52;9.65;;;5.00;99.90;;;;;;5134101;27;20050;-70
2022/01/11 08:40:25;;;;;;;20.77;9.80;;;5.00;99.90;;;;;;5133263;27;20072;-68
2022/01/11 08:42:52;;;;;;;22.25;10.40;;;5.10;99.90;;;;;;5133739;27;20023;-71
2022/01/11 08:45:19;;;;;;;21.00;9.73;;;5.10;99.90;;;;;;5137596;27;20031;-67
2022/01/11 08:47:45;;;;;;;24.30;10.60;;;5.10;99.90;;;;;;5139752;27;20032;-67
2022/01/11 08:50:12;;;;;;;19.92;9.88;;;5.10;99.90;;;;;;5138911;27;20027;-66
2022/01/11 08:52:42;;;;;;;16.27;10.10;;;5.20;99.90;;;;;;5138094;27;20171;-68
2022/01/11 08:55:11;;;;;;;16.20;8.88;;;5.30;99.90;;;;;;5139453;27;20076;-68
2022/01/11 08:57:37;;;;;;;18.67;9.00;;;5.30;99.90;;;;;;5135347;27;20076;-68
2022/01/11 09:00:09;;;;;;;17.65;8.95;;;5.40;99.90;;;;;;5135565;27;20023;-68
2022/01/11 09:02:37;;;;;;;20.90;9.02;;;5.30;99.90;;;;;;5137567;27;20118;-70
2022/01/11 09:05:03;;;;;;;14.95;9.75;;;5.40;99.90;;;;;;5135445;27;20438;-70
2022/01/11 09:07:29;;;;;;;14.77;8.93;;;5.40;99.90;;;;;;5136115;27;20031;-68
2022/01/11 09:09:55;;;;;;;17.45;8.63;;;5.50;99.90;;;;;;5136816;27;20035;-68
2022/01/11 09:12:20;;;;;;;24.70;9.95;;;5.60;99.90;;;;;;5134620;27;20034;-67
2022/01/11 09:14:47;;;;;;;15.52;8.70;;;5.70;99.90;;;;;;5135888;27;20031;-68
2022/01/11 09:17:12;;;;;;;18.67;9.20;;;5.60;99.90;;;;;;5136458;27;20038;-70
2022/01/11 09:19:39;;;;;;;16.60;9.27;;;5.70;99.90;;;;;;5135981;27;20468;-68
2022/01/11 09:22:06;;;;;;;18.02;8.60;;;5.70;99.90;;;;;;5136607;27;20047;-66
2022/01/11 09:24:32;;;;;;;18.30;8.55;;;5.80;99.90;;;;;;5136481;27;20038;-66
2022/01/11 09:27:00;;;;;;;14.98;8.80;;;5.80;99.90;;;;;;5137992;27;20420;-66
2022/01/11 09:29:26;;;;;;;17.15;9.23;;;5.90;99.90;;;;;;5136861;27;20023;-66
2022/01/11 09:31:55;;;;;;;15.32;8.40;;;6.00;99.90;;;;;;5137941;27;20087;-67
2022/01/11 09:34:21;;;;;;;16.98;9.23;;;6.00;99.90;;;;;;5134899;27;20027;-66
2022/01/11 09:36:47;;;;;;;15.27;8.32;;;6.00;99.90;;;;;;5135646;27;20128;-67
2022/01/11 09:39:13;;;;;;;16.15;9.20;;;6.10;99.90;;;;;;5135497;27;20461;-68
2022/01/11 09:41:39;;;;;;;13.77;8.40;;;6.10;99.90;;;;;;5135309;27;20027;-67
2022/01/11 09:44:06;;;;;;;17.52;8.27;;;6.10;99.90;;;;;;5134499;27;20160;-71
2022/01/11 09:46:33;;;;;;;19.60;10.43;;;6.10;99.90;;;;;;5135419;27;20409;-66
2022/01/11 09:48:58;;;;;;;14.63;8.82;;;6.20;99.90;;;;;;5137048;27;20154;-69
2022/01/11 09:51:24;;;;;;;12.93;8.20;;;6.20;99.90;;;;;;5134128;27;20027;-67
2022/01/11 09:53:51;;;;;;;19.52;9.82;;;6.20;99.90;;;;;;5135657;27;20056;-69
2022/01/11 09:56:17;;;;;;;18.92;9.68;;;6.20;99.90;;;;;;5134739;27;20032;-69
2022/01/11 09:58:45;;;;;;;15.88;9.43;;;6.20;99.90;;;;;;5135050;27;20027;-70
2022/01/11 10:01:11;;;;;;;14.82;8.98;;;6.20;99.90;;;;;;5136682;27;20027;-66
2022/01/11 10:04:01;;;;;;;16.45;8.68;;;6.30;99.90;;;;;;5134081;27;20127;-68
2022/01/11 10:06:27;;;;;;;16.45;8.45;;;6.30;99.90;;;;;;5134848;27;20102;-68
2022/01/11 10:09:09;;;;;;;24.50;9.68;;;6.40;99.90;;;;;;5135674;27;20051;-66
2022/01/11 10:11:42;;;;;;;;;;;6.40;99.90;;;;;;5135534;27;20501;-70
2022/01/11 10:14:20;;;;;;;15.23;8.25;;;6.40;99.90;;;;;;5136149;27;19904;-70
2022/01/11 10:16:46;;;;;;;17.08;9.45;;;6.50;99.90;;;;;;5136285;27;20488;-72
2022/01/11 10:19:24;;;;;;;17.02;9.02;;;6.40;99.90;;;;;;5134638;27;20030;-71
2022/01/11 10:21:51;;;;;;;14.70;9.45;;;6.40;99.90;;;;;;5134292;27;20070;-66
2022/01/11 10:24:32;;;;;;;17.98;9.95;;;6.40;99.90;;;;;;5135968;27;20055;-69
2022/01/11 10:26:59;;;;;;;14.88;9.70;;;6.10;99.90;;;;;;5134018;27;20480;-67
2022/01/11 10:29:30;;;;;;;14.02;8.43;;;6.20;99.90;;;;;;5133038;27;20031;-70
2022/01/11 10:31:59;;;;;;;15.50;10.50;;;6.30;99.90;;;;;;5135421;27;20087;-66
2022/01/11 10:34:31;;;;;;;17.85;8.85;;;6.20;99.90;;;;;;5134104;27;20063;-66
2022/01/11 10:37:00;;;;;;;16.38;10.07;;;6.30;99.90;;;;;;5133206;27;20365;-67
2022/01/11 10:39:29;;;;;;;13.27;8.73;;;6.30;99.90;;;;;;5134005;27;20031;-66
2022/01/11 10:41:57;;;;;;;15.40;8.25;;;6.30;99.90;;;;;;5135529;27;20027;-69
2022/01/11 10:44:51;;;;;;;22.83;10.88;;;6.40;99.90;;;;;;5134986;27;20031;-67
2022/01/11 10:47:34;;;;;;;14.77;8.57;;;6.40;99.90;;;;;;5135574;27;20023;-68
2022/01/11 10:50:11;;;;;;;17.55;9.13;;;6.40;99.90;;;;;;5135133;27;20042;-67
2022/01/11 10:52:37;;;;;;;17.90;8.70;;;6.40;99.90;;;;;;5135014;27;20384;-69
2022/01/11 10:55:11;;;;;;;14.75;8.32;;;6.50;99.90;;;;;;5136528;27;20027;-66
2022/01/11 10:57:38;;;;;;;17.30;8.80;;;6.50;99.90;;;;;;5136098;27;20023;-71
2022/01/11 11:00:23;;;;;;;15.55;8.00;;;6.40;99.90;;;;;;5133773;27;20465;-68
2022/01/11 11:03:13;;;;;;;22.45;8.75;;;6.50;99.90;;;;;;5034174;28;20045;-66
2022/01/11 11:05:39;;;;;;;18.75;10.32;;;6.50;99.90;;;;;;5050157;28;20482;-68
2022/01/11 11:08:09;;;;;;;14.23;8.63;;;6.60;99.90;;;;;;5050732;28;20045;-67
2022/01/11 11:10:47;;;;;;;18.63;10.32;;;6.40;99.90;;;;;;5050470;28;20041;-68
2022/01/11 11:13:40;;;;;;;18.90;8.50;;;6.50;99.90;;;;;;5018268;28;20442;-67
2022/01/11 11:16:12;;;;;;;17.83;8.73;;;6.40;99.90;;;;;;5031644;28;20513;-68
2022/01/11 11:18:43;;;;;;;17.38;9.23;;;6.50;99.90;;;;;;5049984;28;20518;-68
2022/01/11 11:21:18;;;;;;;17.10;8.53;;;6.50;99.90;;;;;;5033713;28;20044;-65
2022/01/11 11:23:45;;;;;;;16.95;9.07;;;6.40;99.90;;;;;;5048009;28;20041;-69
2022/01/11 11:26:12;;;;;;;19.10;9.68;;;6.50;99.90;;;;;;5049980;28;20102;-67
2022/01/11 11:28:38;;;;;;;16.15;8.88;;;6.50;99.90;;;;;;5036194;28;20069;-67
2022/01/11 11:31:04;;;;;;;22.23;11.73;;;6.50;99.90;;;;;;5049685;28;20368;-67
2022/01/11 11:33:30;;;;;;;20.42;10.05;;;6.60;99.90;;;;;;5033533;28;20039;-67
2022/01/11 11:35:57;;;;;;;18.33;9.23;;;6.60;99.90;;;;;;5050431;28;20108;-68
2022/01/11 11:38:31;;;;;;;18.20;9.25;;;6.70;99.90;;;;;;5034062;28;20087;-67
2022/01/11 11:40:57;;;;;;;34.97;10.48;;;6.80;99.90;;;;;;5109410;28;20044;-67
2022/01/11 11:43:23;;;;;;;17.30;9.40;;;6.90;99.90;;;;;;5114452;28;20023;-67
2022/01/11 11:45:49;;;;;;;16.15;9.65;;;6.80;99.90;;;;;;5112114;28;20038;-70
2022/01/11 11:48:17;;;;;;;21.25;9.60;;;6.90;99.90;;;;;;5113282;28;20376;-70
2022/01/11 11:50:51;;;;;;;22.55;8.43;;;7.00;99.90;;;;;;5110908;28;20119;-71
2022/01/11 11:53:29;;;;;;;20.23;9.52;;;7.10;99.90;;;;;;5115466;28;20065;-68
2022/01/11 11:56:14;;;;;;;32.00;11.68;;;7.00;99.90;;;;;;5113360;28;20035;-65
2022/01/11 11:58:43;;;;;;;20.52;10.38;;;7.10;99.90;;;;;;5129763;28;20027;-68
2022/01/11 12:01:29;;;;;;;13.25;8.68;;;6.60;99.90;;;;;;5123164;27;20102;-66
2022/01/11 12:03:55;;;;;;;14.52;9.25;;;6.50;99.90;;;;;;5131126;27;20380;-69
2022/01/11 12:06:28;;;;;;;23.83;10.60;;;6.60;99.90;;;;;;5127465;28;20024;-67
2022/01/11 12:09:06;;;;;;;17.30;8.98;;;6.80;99.90;;;;;;5112091;28;20032;-72
2022/01/11 12:11:40;;;;;;;23.15;9.57;;;7.10;99.90;;;;;;5112084;28;20024;-67
2022/01/11 12:14:07;;;;;;;20.17;10.50;;;7.20;99.90;;;;;;5113885;28;20028;-68
2022/01/11 12:16:38;;;;;;;25.13;10.52;;;7.30;99.90;;;;;;5110954;28;20051;-67
2022/01/11 12:19:14;;;;;;;17.50;9.45;;;7.30;99.90;;;;;;5115345;27;20365;-67
2022/01/11 12:22:06;;;;;;;22.70;9.73;;;7.40;99.90;;;;;;5136897;27;20110;-67
2022/01/11 12:24:46;;;;;;;23.52;9.23;;;7.40;99.90;;;;;;5125170;27;20097;-65
2022/01/11 12:27:15;;;;;;;15.93;9.52;;;7.40;99.90;;;;;;5136345;27;20035;-67
2022/01/11 12:29:53;;;;;;;20.60;9.15;;;7.50;99.90;;;;;;5135079;27;20023;-67
2022/01/11 12:32:20;;;;;;;17.73;8.95;;;7.60;99.90;;;;;;5129965;27;20104;-67
2022/01/11 12:34:45;;;;;;;19.65;9.73;;;7.70;99.90;;;;;;5123115;27;20035;-68
2022/01/11 12:37:27;;;;;;;17.60;8.60;;;7.80;99.90;;;;;;5126652;27;20071;-66
2022/01/11 12:40:23;;;;;;;21.60;9.10;;;7.90;99.90;;;;;;5127163;27;20104;-67
2022/01/11 12:42:52;;;;;;;17.35;9.32;;;7.90;99.90;;;;;;5120469;27;20035;-67
2022/01/11 12:45:39;;;;;;;15.68;8.85;;;8.00;99.90;;;;;;5134090;27;20031;-67
2022/01/11 12:48:05;;;;;;;16.15;9.65;;;8.10;99.90;;;;;;5134084;27;20057;-67